メインページ
METAR-TAF:

METAR-TAF

空港 :

Penticton, ブリティッシュコロンビア州, カナダ

緯度: 49-28N, 経度: 119-36W, 海抜: 344m

現時点の気象観測

当レポートは42分前の15:00(UTC)に作成
北/北東の風 4kt
気温 19°C
湿度 52%
気圧 1011 hPa
視程: 24.1km
高度18000ftの雲はほとんどない
高度25000ftの雲は散在している

METAR: CYYF 111500Z 02004KT 15SM FEW180 SCT250 19/09 A2984 RMK AC2CI2 SLP103 DENSITY ALT 2000FT

時間: 08:42 (15:42 UTC)

予報

当レポートは3時間3分前の12:39(UTC)に作成
予報は11日の 13時(UTC)から 12日の 01時(UTC)まで有効
変向風 3kt
視程: 10km
高度16000ftの雲はほとんどない
11日の 16時(UTC)から 11日の 18時(UTC)まで徐々に
南/南東の風 8kt
12日の 00時(UTC)から 12日の 01時(UTC)まで徐々に
北/北西の風 10kt

TAF: CYYF 111239Z 1113/1201 VRB03KT P6SM FEW160 BECMG 1116/1118 15008KT BECMG 1200/1201 34010KT RMK NXT FCST BY 111900Z

4,000以上の空港の気象観測と天気予報(METAR報とTAF報)

利用可能な観測所は地図上に黄色い丸と赤い丸で示す。

丸の上にカーソルを重ねると観測所名を参照できる。

次にクリックすると気象観測と天気予報を参照できる。

マップの切り替え:黒色「×」印の緑ボタンをクリックして拡大、「-」印の緑ボタンをクリックして縮小、緑色の三角印をクリックして隣りの地図に切り替え


METAR-TAF: